Terminal Aerodrome Forecast
Issued by NWS

Home | Current Version | Previous Version | Text Only | Print | Product List | Glossary On
Versions: 1 2 3 4 5 6 7 8 9 10 11 12 13 14 15 16 17 18 19 20 21 22 23 24 25 26 27 28 29 30 31 32 33 34 35 36 37 38
000
FTUS44 KFWD 200900 AAA
TAFAFW
TAF AMD
KAFW 200905Z 2009/2106 36005KT 6SM BR SCT008 OVC020
     FM201000 01005KT 5SM BR SCT008 OVC012
      TEMPO 2012/2015 3SM -DZ BR OVC008
     FM201600 10005KT P6SM OVC012
     FM202000 14006KT P6SM BKN020
     FM210400 14004KT P6SM OVC015=

USA.gov is the U.S. government's official web portal to all federal, state and local government web resources and services.